sensor_id;sensor_type;location;lat;lon;timestamp;temperature;humidity
68813;DHT22;55808;48.112;11.552;2022-09-17T00:01:15;9.80;99.90
68813;DHT22;55808;48.112;11.552;2022-09-17T00:03:42;9.80;99.90
68813;DHT22;55808;48.112;11.552;2022-09-17T00:06:10;9.70;99.90
68813;DHT22;55808;48.112;11.552;2022-09-17T00:08:39;9.80;99.90
68813;DHT22;55808;48.112;11.552;2022-09-17T00:11:09;9.70;99.90
68813;DHT22;55808;48.112;11.552;2022-09-17T00:13:35;9.80;99.90
68813;DHT22;55808;48.112;11.552;2022-09-17T00:16:01;9.80;99.90
68813;DHT22;55808;48.112;11.552;2022-09-17T00:18:27;9.80;99.90
68813;DHT22;55808;48.112;11.552;2022-09-17T00:20:53;9.80;99.90
68813;DHT22;55808;48.112;11.552;2022-09-17T00:23:19;9.80;99.90
68813;DHT22;55808;48.112;11.552;2022-09-17T00:25:45;9.90;99.90
68813;DHT22;55808;48.112;11.552;2022-09-17T00:28:12;9.80;99.90
68813;DHT22;55808;48.112;11.552;2022-09-17T00:30:43;9.80;99.90
68813;DHT22;55808;48.112;11.552;2022-09-17T00:33:13;9.80;99.90
68813;DHT22;55808;48.112;11.552;2022-09-17T00:35:39;9.90;99.90
68813;DHT22;55808;48.112;11.552;2022-09-17T00:38:05;9.80;99.90
68813;DHT22;55808;48.112;11.552;2022-09-17T00:40:31;9.90;99.90
68813;DHT22;55808;48.112;11.552;2022-09-17T00:42:56;9.80;99.90
68813;DHT22;55808;48.112;11.552;2022-09-17T00:45:23;9.80;99.90
68813;DHT22;55808;48.112;11.552;2022-09-17T00:48:03;9.90;99.90
68813;DHT22;55808;48.112;11.552;2022-09-17T00:50:37;9.80;99.90
68813;DHT22;55808;48.112;11.552;2022-09-17T00:53:15;9.90;99.90
68813;DHT22;55808;48.112;11.552;2022-09-17T00:55:48;9.90;99.90
68813;DHT22;55808;48.112;11.552;2022-09-17T00:58:17;9.90;99.90
68813;DHT22;55808;48.112;11.552;2022-09-17T01:00:45;9.90;99.90
68813;DHT22;55808;48.112;11.552;2022-09-17T01:03:11;9.80;99.90
68813;DHT22;55808;48.112;11.552;2022-09-17T01:05:45;9.90;99.90
68813;DHT22;55808;48.112;11.552;2022-09-17T01:16:40;9.70;99.90
68813;DHT22;55808;48.112;11.552;2022-09-17T01:19:16;9.70;99.90
68813;DHT22;55808;48.112;11.552;2022-09-17T01:22:00;9.60;99.90
68813;DHT22;55808;48.112;11.552;2022-09-17T01:32:43;9.70;99.90
68813;DHT22;55808;48.112;11.552;2022-09-17T01:38:16;9.60;99.90
68813;DHT22;55808;48.112;11.552;2022-09-17T01:41:02;9.60;99.90
68813;DHT22;55808;48.112;11.552;2022-09-17T01:43:50;9.70;99.90
68813;DHT22;55808;48.112;11.552;2022-09-17T01:46:30;9.70;99.90
68813;DHT22;55808;48.112;11.552;2022-09-17T01:49:03;9.70;99.90
68813;DHT22;55808;48.112;11.552;2022-09-17T01:51:36;9.80;99.90
68813;DHT22;55808;48.112;11.552;2022-09-17T01:54:22;9.70;99.90
68813;DHT22;55808;48.112;11.552;2022-09-17T01:59:26;9.60;99.90
68813;DHT22;55808;48.112;11.552;2022-09-17T02:05:08;9.60;99.90
68813;DHT22;55808;48.112;11.552;2022-09-17T02:07:42;9.60;99.90
68813;DHT22;55808;48.112;11.552;2022-09-17T02:10:13;9.60;99.90
68813;DHT22;55808;48.112;11.552;2022-09-17T02:12:50;9.60;99.90
68813;DHT22;55808;48.112;11.552;2022-09-17T02:15:23;9.60;99.90
68813;DHT22;55808;48.112;11.552;2022-09-17T02:18:06;9.60;99.90
68813;DHT22;55808;48.112;11.552;2022-09-17T02:20:40;9.60;99.90
68813;DHT22;55808;48.112;11.552;2022-09-17T02:23:13;9.40;99.90
68813;DHT22;55808;48.112;11.552;2022-09-17T02:25:49;9.40;99.90
68813;DHT22;55808;48.112;11.552;2022-09-17T02:28:40;9.30;99.90
68813;DHT22;55808;48.112;11.552;2022-09-17T02:31:06;9.30;99.90
68813;DHT22;55808;48.112;11.552;2022-09-17T02:33:34;9.30;99.90
68813;DHT22;55808;48.112;11.552;2022-09-17T02:36:00;9.30;99.90
68813;DHT22;55808;48.112;11.552;2022-09-17T02:38:29;9.30;99.90
68813;DHT22;55808;48.112;11.552;2022-09-17T02:58:34;9.40;99.90
68813;DHT22;55808;48.112;11.552;2022-09-17T03:01:09;9.40;99.90
68813;DHT22;55808;48.112;11.552;2022-09-17T03:03:40;9.30;99.90
68813;DHT22;55808;48.112;11.552;2022-09-17T03:06:07;9.30;99.90
68813;DHT22;55808;48.112;11.552;2022-09-17T03:08:39;9.30;99.90
68813;DHT22;55808;48.112;11.552;2022-09-17T03:11:09;9.30;99.90
68813;DHT22;55808;48.112;11.552;2022-09-17T03:13:35;9.30;99.90
68813;DHT22;55808;48.112;11.552;2022-09-17T03:16:02;9.20;99.90
68813;DHT22;55808;48.112;11.552;2022-09-17T03:18:27;9.20;99.90
68813;DHT22;55808;48.112;11.552;2022-09-17T03:20:53;9.20;99.90
68813;DHT22;55808;48.112;11.552;2022-09-17T03:23:19;9.20;99.90
68813;DHT22;55808;48.112;11.552;2022-09-17T03:25:45;9.20;99.90
68813;DHT22;55808;48.112;11.552;2022-09-17T03:28:12;9.20;99.90
68813;DHT22;55808;48.112;11.552;2022-09-17T03:30:37;9.10;99.90
68813;DHT22;55808;48.112;11.552;2022-09-17T03:33:03;9.10;99.90
68813;DHT22;55808;48.112;11.552;2022-09-17T03:35:28;9.10;99.90
68813;DHT22;55808;48.112;11.552;2022-09-17T03:37:54;9.00;99.90
68813;DHT22;55808;48.112;11.552;2022-09-17T03:40:20;8.90;99.90
68813;DHT22;55808;48.112;11.552;2022-09-17T03:42:45;8.80;99.90
68813;DHT22;55808;48.112;11.552;2022-09-17T03:45:11;8.90;99.90
68813;DHT22;55808;48.112;11.552;2022-09-17T03:47:37;8.80;99.90
68813;DHT22;55808;48.112;11.552;2022-09-17T03:50:04;8.90;99.90
68813;DHT22;55808;48.112;11.552;2022-09-17T03:52:30;8.90;99.90
68813;DHT22;55808;48.112;11.552;2022-09-17T03:54:55;8.90;99.90
68813;DHT22;55808;48.112;11.552;2022-09-17T03:57:21;8.90;99.90
68813;DHT22;55808;48.112;11.552;2022-09-17T03:59:47;8.90;99.90
68813;DHT22;55808;48.112;11.552;2022-09-17T04:02:13;8.90;99.90
68813;DHT22;55808;48.112;11.552;2022-09-17T04:04:39;8.90;99.90
68813;DHT22;55808;48.112;11.552;2022-09-17T04:07:05;8.90;99.90
68813;DHT22;55808;48.112;11.552;2022-09-17T04:09:30;8.90;99.90
68813;DHT22;55808;48.112;11.552;2022-09-17T04:11:56;8.90;99.90
68813;DHT22;55808;48.112;11.552;2022-09-17T04:14:22;8.90;99.90
68813;DHT22;55808;48.112;11.552;2022-09-17T04:16:47;8.90;99.90
68813;DHT22;55808;48.112;11.552;2022-09-17T04:19:13;9.00;99.90
68813;DHT22;55808;48.112;11.552;2022-09-17T04:21:38;8.90;99.90
68813;DHT22;55808;48.112;11.552;2022-09-17T04:24:04;9.00;99.90
68813;DHT22;55808;48.112;11.552;2022-09-17T04:26:30;9.00;99.90
68813;DHT22;55808;48.112;11.552;2022-09-17T04:28:56;9.00;99.90
68813;DHT22;55808;48.112;11.552;2022-09-17T04:31:21;8.90;99.90
68813;DHT22;55808;48.112;11.552;2022-09-17T04:33:49;8.80;99.90
68813;DHT22;55808;48.112;11.552;2022-09-17T04:36:15;8.90;99.90
68813;DHT22;55808;48.112;11.552;2022-09-17T04:38:41;8.80;99.90
68813;DHT22;55808;48.112;11.552;2022-09-17T04:41:07;8.80;99.90
68813;DHT22;55808;48.112;11.552;2022-09-17T04:43:33;8.70;99.90
68813;DHT22;55808;48.112;11.552;2022-09-17T04:45:59;8.80;99.90
68813;DHT22;55808;48.112;11.552;2022-09-17T04:48:25;8.80;99.90
68813;DHT22;55808;48.112;11.552;2022-09-17T04:50:53;8.80;99.90
68813;DHT22;55808;48.112;11.552;2022-09-17T04:53:19;8.80;99.90
68813;DHT22;55808;48.112;11.552;2022-09-17T04:55:44;8.90;99.90
68813;DHT22;55808;48.112;11.552;2022-09-17T04:58:10;8.90;99.90
68813;DHT22;55808;48.112;11.552;2022-09-17T05:00:36;8.90;99.90
68813;DHT22;55808;48.112;11.552;2022-09-17T05:03:02;8.90;99.90
68813;DHT22;55808;48.112;11.552;2022-09-17T05:05:28;8.90;99.90
68813;DHT22;55808;48.112;11.552;2022-09-17T05:07:54;9.00;99.90
68813;DHT22;55808;48.112;11.552;2022-09-17T05:10:21;9.00;99.90
68813;DHT22;55808;48.112;11.552;2022-09-17T05:12:51;9.10;99.90
68813;DHT22;55808;48.112;11.552;2022-09-17T05:15:17;9.00;99.90
68813;DHT22;55808;48.112;11.552;2022-09-17T05:17:44;9.20;99.90
68813;DHT22;55808;48.112;11.552;2022-09-17T05:20:10;9.00;99.90
68813;DHT22;55808;48.112;11.552;2022-09-17T05:22:46;9.00;99.90
68813;DHT22;55808;48.112;11.552;2022-09-17T05:25:14;9.00;99.90
68813;DHT22;55808;48.112;11.552;2022-09-17T05:27:40;8.90;99.90
68813;DHT22;55808;48.112;11.552;2022-09-17T05:30:07;8.90;99.90
68813;DHT22;55808;48.112;11.552;2022-09-17T05:32:34;8.90;99.90
68813;DHT22;55808;48.112;11.552;2022-09-17T05:35:00;8.80;99.90
68813;DHT22;55808;48.112;11.552;2022-09-17T05:37:26;8.90;99.90
68813;DHT22;55808;48.112;11.552;2022-09-17T05:39:52;8.90;99.90
68813;DHT22;55808;48.112;11.552;2022-09-17T05:42:18;8.90;99.90
68813;DHT22;55808;48.112;11.552;2022-09-17T05:44:43;8.90;99.90
68813;DHT22;55808;48.112;11.552;2022-09-17T05:47:09;8.80;99.90
68813;DHT22;55808;48.112;11.552;2022-09-17T05:49:34;8.80;99.90
68813;DHT22;55808;48.112;11.552;2022-09-17T05:52:00;8.80;99.90
68813;DHT22;55808;48.112;11.552;2022-09-17T05:54:27;8.90;99.90
68813;DHT22;55808;48.112;11.552;2022-09-17T05:56:53;8.90;99.90
68813;DHT22;55808;48.112;11.552;2022-09-17T05:59:19;8.80;99.90
68813;DHT22;55808;48.112;11.552;2022-09-17T06:01:44;8.70;99.90
68813;DHT22;55808;48.112;11.552;2022-09-17T06:04:10;8.70;99.90
68813;DHT22;55808;48.112;11.552;2022-09-17T06:06:37;8.80;99.90
68813;DHT22;55808;48.112;11.552;2022-09-17T06:09:04;9.00;99.90
68813;DHT22;55808;48.112;11.552;2022-09-17T06:11:30;8.80;99.90
68813;DHT22;55808;48.112;11.552;2022-09-17T06:13:56;8.80;99.90
68813;DHT22;55808;48.112;11.552;2022-09-17T06:16:22;8.90;99.90
68813;DHT22;55808;48.112;11.552;2022-09-17T06:18:48;8.90;99.90
68813;DHT22;55808;48.112;11.552;2022-09-17T06:21:15;9.00;99.90
68813;DHT22;55808;48.112;11.552;2022-09-17T06:23:42;8.90;99.90
68813;DHT22;55808;48.112;11.552;2022-09-17T06:26:08;8.90;99.90
68813;DHT22;55808;48.112;11.552;2022-09-17T06:28:34;8.90;99.90
68813;DHT22;55808;48.112;11.552;2022-09-17T06:31:01;8.90;99.90
68813;DHT22;55808;48.112;11.552;2022-09-17T06:33:28;9.00;99.90
68813;DHT22;55808;48.112;11.552;2022-09-17T06:36:01;8.90;99.90
68813;DHT22;55808;48.112;11.552;2022-09-17T06:38:30;8.90;99.90
68813;DHT22;55808;48.112;11.552;2022-09-17T06:40:56;8.90;99.90
68813;DHT22;55808;48.112;11.552;2022-09-17T06:43:22;8.90;99.90
68813;DHT22;55808;48.112;11.552;2022-09-17T06:45:59;8.90;99.90
68813;DHT22;55808;48.112;11.552;2022-09-17T06:48:27;9.30;99.90
68813;DHT22;55808;48.112;11.552;2022-09-17T06:50:54;9.10;99.90
68813;DHT22;55808;48.112;11.552;2022-09-17T06:53:23;9.00;99.90
68813;DHT22;55808;48.112;11.552;2022-09-17T06:55:50;8.90;99.90
68813;DHT22;55808;48.112;11.552;2022-09-17T06:58:15;8.80;99.90
68813;DHT22;55808;48.112;11.552;2022-09-17T07:00:42;8.80;99.90
68813;DHT22;55808;48.112;11.552;2022-09-17T07:03:09;8.80;99.90
68813;DHT22;55808;48.112;11.552;2022-09-17T07:05:34;8.80;99.90
68813;DHT22;55808;48.112;11.552;2022-09-17T07:08:01;8.90;99.90
68813;DHT22;55808;48.112;11.552;2022-09-17T07:10:30;8.90;99.90
68813;DHT22;55808;48.112;11.552;2022-09-17T07:12:56;8.90;99.90
68813;DHT22;55808;48.112;11.552;2022-09-17T07:15:22;8.90;99.90
68813;DHT22;55808;48.112;11.552;2022-09-17T07:17:48;8.90;99.90
68813;DHT22;55808;48.112;11.552;2022-09-17T07:20:13;9.00;99.90
68813;DHT22;55808;48.112;11.552;2022-09-17T07:22:39;9.10;99.90
68813;DHT22;55808;48.112;11.552;2022-09-17T07:25:06;9.20;99.90
68813;DHT22;55808;48.112;11.552;2022-09-17T07:27:32;9.30;99.90
68813;DHT22;55808;48.112;11.552;2022-09-17T07:29:58;9.30;99.90
68813;DHT22;55808;48.112;11.552;2022-09-17T07:32:24;9.40;99.90
68813;DHT22;55808;48.112;11.552;2022-09-17T07:34:51;9.50;99.90
68813;DHT22;55808;48.112;11.552;2022-09-17T07:37:17;9.50;99.90
68813;DHT22;55808;48.112;11.552;2022-09-17T07:39:43;9.40;99.90
68813;DHT22;55808;48.112;11.552;2022-09-17T07:42:09;9.40;99.90
68813;DHT22;55808;48.112;11.552;2022-09-17T07:44:35;9.40;99.90
68813;DHT22;55808;48.112;11.552;2022-09-17T07:47:01;9.40;99.90
68813;DHT22;55808;48.112;11.552;2022-09-17T07:49:26;9.50;99.90
68813;DHT22;55808;48.112;11.552;2022-09-17T07:51:52;9.60;99.90
68813;DHT22;55808;48.112;11.552;2022-09-17T07:54:19;9.90;99.90
68813;DHT22;55808;48.112;11.552;2022-09-17T07:56:45;10.00;99.90
68813;DHT22;55808;48.112;11.552;2022-09-17T07:59:10;9.90;99.90
68813;DHT22;55808;48.112;11.552;2022-09-17T08:01:36;9.70;99.90
68813;DHT22;55808;48.112;11.552;2022-09-17T08:04:03;9.70;99.90
68813;DHT22;55808;48.112;11.552;2022-09-17T08:06:29;9.70;99.90
68813;DHT22;55808;48.112;11.552;2022-09-17T08:08:56;9.60;99.90
68813;DHT22;55808;48.112;11.552;2022-09-17T08:11:27;9.50;99.90
68813;DHT22;55808;48.112;11.552;2022-09-17T08:13:54;9.40;99.90
68813;DHT22;55808;48.112;11.552;2022-09-17T08:16:21;9.50;99.90
68813;DHT22;55808;48.112;11.552;2022-09-17T08:18:47;9.80;99.90
68813;DHT22;55808;48.112;11.552;2022-09-17T08:21:16;9.70;99.90
68813;DHT22;55808;48.112;11.552;2022-09-17T08:23:45;9.60;99.90
68813;DHT22;55808;48.112;11.552;2022-09-17T08:26:14;9.60;99.90
68813;DHT22;55808;48.112;11.552;2022-09-17T08:28:43;9.50;99.90
68813;DHT22;55808;48.112;11.552;2022-09-17T08:31:11;9.50;99.90
68813;DHT22;55808;48.112;11.552;2022-09-17T08:33:38;9.60;99.90
68813;DHT22;55808;48.112;11.552;2022-09-17T08:36:05;9.90;99.90
68813;DHT22;55808;48.112;11.552;2022-09-17T08:38:32;10.10;99.90
68813;DHT22;55808;48.112;11.552;2022-09-17T08:44:04;10.20;99.90
68813;DHT22;55808;48.112;11.552;2022-09-17T08:46:46;10.40;99.20
68813;DHT22;55808;48.112;11.552;2022-09-17T08:49:34;10.40;98.50
68813;DHT22;55808;48.112;11.552;2022-09-17T08:52:16;10.30;99.10
68813;DHT22;55808;48.112;11.552;2022-09-17T09:00:15;10.20;98.30
68813;DHT22;55808;48.112;11.552;2022-09-17T09:08:02;9.90;98.00
68813;DHT22;55808;48.112;11.552;2022-09-17T09:10:44;9.90;98.40
68813;DHT22;55808;48.112;11.552;2022-09-17T09:13:13;10.00;98.10
68813;DHT22;55808;48.112;11.552;2022-09-17T09:15:51;10.00;96.90
68813;DHT22;55808;48.112;11.552;2022-09-17T09:18:22;10.10;96.30
68813;DHT22;55808;48.112;11.552;2022-09-17T09:26:16;10.00;98.60
68813;DHT22;55808;48.112;11.552;2022-09-17T09:33:54;10.10;98.30
68813;DHT22;55808;48.112;11.552;2022-09-17T09:36:21;10.10;97.90
68813;DHT22;55808;48.112;11.552;2022-09-17T09:39:11;10.10;98.50
68813;DHT22;55808;48.112;11.552;2022-09-17T09:41:43;9.90;99.60
68813;DHT22;55808;48.112;11.552;2022-09-17T09:44:14;9.80;99.40
68813;DHT22;55808;48.112;11.552;2022-09-17T09:55:10;10.30;97.90
68813;DHT22;55808;48.112;11.552;2022-09-17T09:57:49;10.20;98.20
68813;DHT22;55808;48.112;11.552;2022-09-17T10:00:31;10.10;99.90
68813;DHT22;55808;48.112;11.552;2022-09-17T10:03:05;9.80;99.90
68813;DHT22;55808;48.112;11.552;2022-09-17T10:05:34;9.70;99.90
68813;DHT22;55808;48.112;11.552;2022-09-17T10:08:10;9.60;99.90
68813;DHT22;55808;48.112;11.552;2022-09-17T10:10:59;9.60;99.90
68813;DHT22;55808;48.112;11.552;2022-09-17T10:13:29;9.30;99.90
68813;DHT22;55808;48.112;11.552;2022-09-17T10:15:55;9.20;99.90
68813;DHT22;55808;48.112;11.552;2022-09-17T10:18:23;9.00;99.90
68813;DHT22;55808;48.112;11.552;2022-09-17T10:20:58;8.80;99.90
68813;DHT22;55808;48.112;11.552;2022-09-17T10:23:29;8.80;99.90
68813;DHT22;55808;48.112;11.552;2022-09-17T10:25:58;8.70;99.90
68813;DHT22;55808;48.112;11.552;2022-09-17T10:30:58;8.30;99.90
68813;DHT22;55808;48.112;11.552;2022-09-17T10:33:27;8.20;99.90
68813;DHT22;55808;48.112;11.552;2022-09-17T10:38:42;8.10;99.90
68813;DHT22;55808;48.112;11.552;2022-09-17T10:41:08;8.20;99.90
68813;DHT22;55808;48.112;11.552;2022-09-17T10:43:36;8.40;99.90
68813;DHT22;55808;48.112;11.552;2022-09-17T10:46:08;8.60;99.90
68813;DHT22;55808;48.112;11.552;2022-09-17T10:48:51;8.40;99.90
68813;DHT22;55808;48.112;11.552;2022-09-17T10:51:22;8.30;99.90
68813;DHT22;55808;48.112;11.552;2022-09-17T10:56:47;8.10;99.90
68813;DHT22;55808;48.112;11.552;2022-09-17T11:07:53;8.40;99.90
68813;DHT22;55808;48.112;11.552;2022-09-17T11:10:46;8.50;99.90
68813;DHT22;55808;48.112;11.552;2022-09-17T11:30:04;8.30;99.90
68813;DHT22;55808;48.112;11.552;2022-09-17T11:35:24;8.90;99.90
68813;DHT22;55808;48.112;11.552;2022-09-17T11:40:46;8.90;99.90
68813;DHT22;55808;48.112;11.552;2022-09-17T11:43:33;8.70;99.90
68813;DHT22;55808;48.112;11.552;2022-09-17T11:46:20;8.60;99.90
68813;DHT22;55808;48.112;11.552;2022-09-17T11:48:54;9.20;99.90
68813;DHT22;55808;48.112;11.552;2022-09-17T11:51:36;9.50;99.90
68813;DHT22;55808;48.112;11.552;2022-09-17T11:54:35;9.60;99.90
68813;DHT22;55808;48.112;11.552;2022-09-17T11:57:17;9.40;99.90
68813;DHT22;55808;48.112;11.552;2022-09-17T12:07:59;9.40;99.90
68813;DHT22;55808;48.112;11.552;2022-09-17T12:15:35;12.90;99.90
68813;DHT22;55808;48.112;11.552;2022-09-17T12:18:31;11.80;99.90
68813;DHT22;55808;48.112;11.552;2022-09-17T12:21:03;11.10;99.90
68813;DHT22;55808;48.112;11.552;2022-09-17T12:37:47;9.40;99.90
68813;DHT22;55808;48.112;11.552;2022-09-17T12:40:34;9.00;99.90
68813;DHT22;55808;48.112;11.552;2022-09-17T12:48:44;8.30;99.90
68813;DHT22;55808;48.112;11.552;2022-09-17T12:57:14;9.10;99.90
68813;DHT22;55808;48.112;11.552;2022-09-17T13:02:23;12.00;99.90
68813;DHT22;55808;48.112;11.552;2022-09-17T13:13:29;11.30;99.90
68813;DHT22;55808;48.112;11.552;2022-09-17T13:24:19;8.10;99.90
68813;DHT22;55808;48.112;11.552;2022-09-17T13:26:47;8.20;99.90
68813;DHT22;55808;48.112;11.552;2022-09-17T13:32:07;8.40;99.90
68813;DHT22;55808;48.112;11.552;2022-09-17T13:34:36;8.50;99.90
68813;DHT22;55808;48.112;11.552;2022-09-17T13:37:17;8.60;99.90
68813;DHT22;55808;48.112;11.552;2022-09-17T13:39:50;8.60;99.90
68813;DHT22;55808;48.112;11.552;2022-09-17T13:44:52;8.60;99.90
68813;DHT22;55808;48.112;11.552;2022-09-17T13:47:30;8.40;99.90
68813;DHT22;55808;48.112;11.552;2022-09-17T13:50:09;8.20;99.90
68813;DHT22;55808;48.112;11.552;2022-09-17T13:52:48;8.00;99.90
68813;DHT22;55808;48.112;11.552;2022-09-17T13:55:36;8.50;99.90
68813;DHT22;55808;48.112;11.552;2022-09-17T13:58:06;9.00;99.90
68813;DHT22;55808;48.112;11.552;2022-09-17T14:01:04;9.00;99.90
68813;DHT22;55808;48.112;11.552;2022-09-17T14:30:22;10.40;99.90
68813;DHT22;55808;48.112;11.552;2022-09-17T14:32:50;10.00;99.90
68813;DHT22;55808;48.112;11.552;2022-09-17T14:35:43;9.70;99.90
68813;DHT22;55808;48.112;11.552;2022-09-17T14:40:49;9.50;99.90
68813;DHT22;55808;48.112;11.552;2022-09-17T14:44:00;9.50;99.90
68813;DHT22;55808;48.112;11.552;2022-09-17T14:48:54;9.50;99.90
68813;DHT22;55808;48.112;11.552;2022-09-17T14:51:25;9.60;99.90
68813;DHT22;55808;48.112;11.552;2022-09-17T14:54:21;9.80;99.90
68813;DHT22;55808;48.112;11.552;2022-09-17T14:57:19;9.90;99.90
68813;DHT22;55808;48.112;11.552;2022-09-17T14:59:52;9.70;99.90
68813;DHT22;55808;48.112;11.552;2022-09-17T15:02:39;9.60;99.90
68813;DHT22;55808;48.112;11.552;2022-09-17T15:10:54;8.60;99.90
68813;DHT22;55808;48.112;11.552;2022-09-17T15:13:31;8.60;99.90
68813;DHT22;55808;48.112;11.552;2022-09-17T15:16:15;8.70;99.90
68813;DHT22;55808;48.112;11.552;2022-09-17T15:19:02;8.80;99.90
68813;DHT22;55808;48.112;11.552;2022-09-17T15:26:56;8.90;99.90
68813;DHT22;55808;48.112;11.552;2022-09-17T15:29:25;8.80;99.90
68813;DHT22;55808;48.112;11.552;2022-09-17T15:31:53;8.70;99.90
68813;DHT22;55808;48.112;11.552;2022-09-17T15:34:18;8.60;99.90
68813;DHT22;55808;48.112;11.552;2022-09-17T15:37:18;8.60;99.90
68813;DHT22;55808;48.112;11.552;2022-09-17T15:39:49;8.40;99.90
68813;DHT22;55808;48.112;11.552;2022-09-17T15:42:24;8.40;99.90
68813;DHT22;55808;48.112;11.552;2022-09-17T15:44:51;8.40;99.90
68813;DHT22;55808;48.112;11.552;2022-09-17T15:47:42;8.50;99.90
68813;DHT22;55808;48.112;11.552;2022-09-17T15:50:25;8.50;99.90
68813;DHT22;55808;48.112;11.552;2022-09-17T15:55:37;8.60;99.90
68813;DHT22;55808;48.112;11.552;2022-09-17T15:58:23;8.70;99.90
68813;DHT22;55808;48.112;11.552;2022-09-17T16:08:46;8.80;99.90
68813;DHT22;55808;48.112;11.552;2022-09-17T16:11:16;8.80;99.90
68813;DHT22;55808;48.112;11.552;2022-09-17T16:13:44;8.80;99.90
68813;DHT22;55808;48.112;11.552;2022-09-17T16:16:18;8.70;99.90
68813;DHT22;55808;48.112;11.552;2022-09-17T16:18:44;8.70;99.90
68813;DHT22;55808;48.112;11.552;2022-09-17T16:21:11;8.70;99.90
68813;DHT22;55808;48.112;11.552;2022-09-17T16:23:36;8.70;99.90
68813;DHT22;55808;48.112;11.552;2022-09-17T16:26:03;8.70;99.90
68813;DHT22;55808;48.112;11.552;2022-09-17T16:28:29;8.70;99.90
68813;DHT22;55808;48.112;11.552;2022-09-17T16:30:55;8.80;99.90
68813;DHT22;55808;48.112;11.552;2022-09-17T16:33:21;8.70;99.90
68813;DHT22;55808;48.112;11.552;2022-09-17T16:35:47;8.70;99.90
68813;DHT22;55808;48.112;11.552;2022-09-17T16:38:13;8.60;99.90
68813;DHT22;55808;48.112;11.552;2022-09-17T16:40:43;8.50;99.90
68813;DHT22;55808;48.112;11.552;2022-09-17T16:43:09;8.50;99.90
68813;DHT22;55808;48.112;11.552;2022-09-17T16:45:35;8.50;99.90
68813;DHT22;55808;48.112;11.552;2022-09-17T16:48:02;8.50;99.90
68813;DHT22;55808;48.112;11.552;2022-09-17T16:50:27;8.80;99.90
68813;DHT22;55808;48.112;11.552;2022-09-17T16:52:53;8.90;99.90
68813;DHT22;55808;48.112;11.552;2022-09-17T16:55:19;8.90;99.90
68813;DHT22;55808;48.112;11.552;2022-09-17T16:57:46;8.90;99.90
68813;DHT22;55808;48.112;11.552;2022-09-17T17:00:14;8.80;99.90
68813;DHT22;55808;48.112;11.552;2022-09-17T17:02:41;8.80;99.90
68813;DHT22;55808;48.112;11.552;2022-09-17T17:05:08;8.70;99.90
68813;DHT22;55808;48.112;11.552;2022-09-17T17:07:35;8.60;99.90
68813;DHT22;55808;48.112;11.552;2022-09-17T17:10:05;8.60;99.90
68813;DHT22;55808;48.112;11.552;2022-09-17T17:12:34;8.50;99.90
68813;DHT22;55808;48.112;11.552;2022-09-17T17:15:00;8.50;99.90
68813;DHT22;55808;48.112;11.552;2022-09-17T17:17:27;8.40;99.90
68813;DHT22;55808;48.112;11.552;2022-09-17T17:19:54;8.40;99.90
68813;DHT22;55808;48.112;11.552;2022-09-17T17:22:20;8.20;99.90
68813;DHT22;55808;48.112;11.552;2022-09-17T17:24:45;8.20;99.90
68813;DHT22;55808;48.112;11.552;2022-09-17T17:27:11;8.20;99.90
68813;DHT22;55808;48.112;11.552;2022-09-17T17:29:38;8.20;99.90
68813;DHT22;55808;48.112;11.552;2022-09-17T17:32:04;8.10;99.90
68813;DHT22;55808;48.112;11.552;2022-09-17T17:34:30;8.00;99.90
68813;DHT22;55808;48.112;11.552;2022-09-17T17:36:56;8.00;99.90
68813;DHT22;55808;48.112;11.552;2022-09-17T17:39:22;8.00;99.90
68813;DHT22;55808;48.112;11.552;2022-09-17T17:41:48;8.00;99.90
68813;DHT22;55808;48.112;11.552;2022-09-17T17:44:13;7.90;99.90
68813;DHT22;55808;48.112;11.552;2022-09-17T17:46:39;7.90;99.90
68813;DHT22;55808;48.112;11.552;2022-09-17T17:49:05;7.90;99.90
68813;DHT22;55808;48.112;11.552;2022-09-17T17:51:32;7.90;99.90
68813;DHT22;55808;48.112;11.552;2022-09-17T17:53:57;7.90;99.90
68813;DHT22;55808;48.112;11.552;2022-09-17T17:56:23;7.80;99.90
68813;DHT22;55808;48.112;11.552;2022-09-17T17:58:54;7.90;99.90
68813;DHT22;55808;48.112;11.552;2022-09-17T18:01:23;8.00;99.90
68813;DHT22;55808;48.112;11.552;2022-09-17T18:03:49;8.00;99.90
68813;DHT22;55808;48.112;11.552;2022-09-17T18:06:15;7.90;99.90
68813;DHT22;55808;48.112;11.552;2022-09-17T18:08:42;7.80;99.90
68813;DHT22;55808;48.112;11.552;2022-09-17T18:11:09;7.80;99.90
68813;DHT22;55808;48.112;11.552;2022-09-17T18:13:36;7.70;99.90
68813;DHT22;55808;48.112;11.552;2022-09-17T18:16:04;7.70;99.90
68813;DHT22;55808;48.112;11.552;2022-09-17T18:18:41;7.70;99.90
68813;DHT22;55808;48.112;11.552;2022-09-17T18:21:11;7.60;99.90
68813;DHT22;55808;48.112;11.552;2022-09-17T18:23:39;7.60;99.90
68813;DHT22;55808;48.112;11.552;2022-09-17T18:26:07;7.70;99.90
68813;DHT22;55808;48.112;11.552;2022-09-17T18:28:35;7.70;99.90
68813;DHT22;55808;48.112;11.552;2022-09-17T18:31:08;7.70;99.90
68813;DHT22;55808;48.112;11.552;2022-09-17T18:33:34;7.80;99.90
68813;DHT22;55808;48.112;11.552;2022-09-17T18:36:02;7.70;99.90
68813;DHT22;55808;48.112;11.552;2022-09-17T18:38:28;7.70;99.90
68813;DHT22;55808;48.112;11.552;2022-09-17T18:40:54;7.60;99.90
68813;DHT22;55808;48.112;11.552;2022-09-17T18:43:23;7.70;99.90
68813;DHT22;55808;48.112;11.552;2022-09-17T18:45:56;7.70;99.90
68813;DHT22;55808;48.112;11.552;2022-09-17T18:48:23;7.70;99.90
68813;DHT22;55808;48.112;11.552;2022-09-17T18:53:22;7.70;99.90
68813;DHT22;55808;48.112;11.552;2022-09-17T18:55:47;7.70;99.90
68813;DHT22;55808;48.112;11.552;2022-09-17T18:58:13;7.70;99.90
68813;DHT22;55808;48.112;11.552;2022-09-17T19:00:39;7.70;99.90
68813;DHT22;55808;48.112;11.552;2022-09-17T19:03:07;7.70;99.90
68813;DHT22;55808;48.112;11.552;2022-09-17T19:05:33;7.70;99.90
68813;DHT22;55808;48.112;11.552;2022-09-17T19:07:59;7.70;99.90
68813;DHT22;55808;48.112;11.552;2022-09-17T19:10:24;7.70;99.90
68813;DHT22;55808;48.112;11.552;2022-09-17T19:12:53;7.80;99.90
68813;DHT22;55808;48.112;11.552;2022-09-17T19:15:19;7.80;99.90
68813;DHT22;55808;48.112;11.552;2022-09-17T19:17:54;7.80;99.90
68813;DHT22;55808;48.112;11.552;2022-09-17T19:20:20;7.80;99.90
68813;DHT22;55808;48.112;11.552;2022-09-17T19:22:50;7.90;99.90
68813;DHT22;55808;48.112;11.552;2022-09-17T19:25:15;7.80;99.90
68813;DHT22;55808;48.112;11.552;2022-09-17T19:27:41;7.90;99.90
68813;DHT22;55808;48.112;11.552;2022-09-17T19:30:10;7.90;99.90
68813;DHT22;55808;48.112;11.552;2022-09-17T19:32:36;7.90;99.90
68813;DHT22;55808;48.112;11.552;2022-09-17T19:35:03;7.90;99.90
68813;DHT22;55808;48.112;11.552;2022-09-17T19:37:29;7.90;99.90
68813;DHT22;55808;48.112;11.552;2022-09-17T19:39:55;7.90;99.90
68813;DHT22;55808;48.112;11.552;2022-09-17T19:42:20;8.00;99.90